Time;durP1;ratioP1;P1;durP2;ratioP2;P2;SDS_P1;SDS_P2;PMS_P1;PMS_P2;Temp;Humidity;BMP_temperature;BMP_pressure;BME280_temperature;BME280_humidity;BME280_pressure;Samples;Min_cycle;Max_cycle;Signal;HPM_P1;HPM_P2
2021/07/28 00:02:05;;;;;;;22.90;13.60;;;;;;;18.90;100.00;95394.22;5040081;28;20092;-78
2021/07/28 00:04:40;;;;;;;22.45;13.48;;;;;;;19.04;100.00;95408.06;5040031;28;20522;-77
2021/07/28 00:07:09;;;;;;;22.67;12.98;;;;;;;19.06;100.00;95405.09;5044139;28;20041;-77
2021/07/28 00:09:35;;;;;;;20.98;13.07;;;;;;;19.04;100.00;95410.75;5032791;28;20048;-78
2021/07/28 00:12:00;;;;;;;22.85;13.38;;;;;;;19.04;100.00;95416.06;5032695;28;20056;-77
2021/07/28 00:14:26;;;;;;;22.90;13.43;;;;;;;18.94;100.00;95411.13;5037202;28;20037;-77
2021/07/28 00:16:52;;;;;;;20.15;13.00;;;;;;;19.01;100.00;95411.41;5038713;28;20067;-78
2021/07/28 00:19:34;;;;;;;22.08;12.13;;;;;;;19.01;100.00;95416.72;5035379;28;20055;-77
2021/07/28 00:24:43;;;;;;;23.08;12.88;;;;;;;18.93;100.00;95425.56;5043216;28;20623;-78
2021/07/28 00:27:09;;;;;;;27.25;13.43;;;;;;;18.72;100.00;95428.97;5051291;28;20091;-77
2021/07/28 00:29:40;;;;;;;22.63;12.80;;;;;;;18.65;100.00;95431.38;5044211;28;20037;-77
2021/07/28 00:32:05;;;;;;;22.02;13.85;;;;;;;18.58;100.00;95442.53;5040569;28;20513;-77
2021/07/28 00:34:31;;;;;;;21.35;14.00;;;;;;;18.57;100.00;95440.19;5057206;28;20037;-77
2021/07/28 00:36:57;;;;;;;24.52;14.05;;;;;;;18.58;100.00;95436.44;5039519;28;20060;-77
2021/07/28 00:39:22;;;;;;;21.75;12.63;;;;;;;18.68;100.00;95430.72;5039297;28;20033;-77
2021/07/28 00:41:48;;;;;;;19.00;12.30;;;;;;;18.57;100.00;95442.84;5036067;28;20064;-77
2021/07/28 00:44:13;;;;;;;23.55;12.38;;;;;;;18.76;100.00;95443.22;5044149;28;20079;-77
2021/07/28 00:46:39;;;;;;;21.65;12.90;;;;;;;18.69;100.00;95440.25;5052269;28;20100;-77
2021/07/28 00:49:06;;;;;;;21.10;12.40;;;;;;;18.78;100.00;95441.00;5031893;28;20527;-77
2021/07/28 00:51:32;;;;;;;21.20;13.15;;;;;;;18.77;100.00;95439.44;5033165;28;20045;-78
2021/07/28 00:53:58;;;;;;;24.10;13.27;;;;;;;18.67;100.00;95439.81;5051860;28;20672;-76
2021/07/28 00:56:25;;;;;;;19.35;12.80;;;;;;;18.70;100.00;95433.84;5039928;28;20052;-76
2021/07/28 00:58:51;;;;;;;22.10;11.95;;;;;;;18.67;100.00;95423.81;5038138;28;20037;-77
2021/07/28 01:01:17;;;;;;;19.98;12.23;;;;;;;18.36;100.00;95414.28;5044127;28;20549;-77
2021/07/28 01:03:43;;;;;;;21.95;12.85;;;;;;;18.15;100.00;95409.66;5053324;28;20052;-76
2021/07/28 01:06:12;;;;;;;15.80;10.55;;;;;;;18.10;100.00;95401.88;5039571;28;20482;-77
2021/07/28 01:08:38;;;;;;;20.48;11.32;;;;;;;18.21;100.00;95396.19;5039681;28;20116;-77
2021/07/28 01:11:06;;;;;;;17.05;10.48;;;;;;;18.35;100.00;95397.50;5039879;28;20053;-76
2021/07/28 01:13:34;;;;;;;18.35;10.80;;;;;;;18.35;100.00;95391.41;5031704;28;20049;-76
2021/07/28 01:16:13;;;;;;;18.23;11.05;;;;;;;18.13;100.00;95390.56;5035803;28;20049;-77
2021/07/28 01:18:40;;;;;;;18.83;12.27;;;;;;;18.01;100.00;95377.16;5043504;28;20038;-77
2021/07/28 01:21:08;;;;;;;16.35;9.93;;;;;;;18.21;100.00;95374.88;5033543;28;20071;-77
2021/07/28 01:23:34;;;;;;;20.30;9.93;;;;;;;18.11;100.00;95374.13;5032211;28;20068;-76
2021/07/28 01:26:01;;;;;;;19.25;10.43;;;;;;;18.03;100.00;95369.63;5032549;28;20049;-76
2021/07/28 01:28:28;;;;;;;18.15;9.98;;;;;;;18.07;100.00;95370.53;5040305;28;20100;-77
2021/07/28 01:31:07;;;;;;;15.35;9.25;;;;;;;17.95;100.00;95368.56;5040350;28;20417;-77
2021/07/28 01:33:36;;;;;;;15.27;8.88;;;;;;;18.02;100.00;95372.63;5032789;28;20041;-77
2021/07/28 01:36:05;;;;;;;16.52;9.18;;;;;;;17.95;100.00;95378.44;5041050;28;20116;-76
2021/07/28 01:38:31;;;;;;;16.60;9.13;;;;;;;18.01;100.00;95382.47;5046736;28;20400;-76
2021/07/28 01:41:00;;;;;;;17.27;9.57;;;;;;;17.94;100.00;95392.84;5051649;28;20045;-76
2021/07/28 01:43:27;;;;;;;17.17;9.30;;;;;;;17.94;100.00;95392.84;5046566;28;20445;-76
2021/07/28 01:45:53;;;;;;;17.10;9.80;;;;;;;17.83;100.00;95397.72;5040109;28;20411;-76
2021/07/28 01:48:19;;;;;;;16.50;10.13;;;;;;;17.78;100.00;95395.97;5043072;28;20037;-76
2021/07/28 01:50:45;;;;;;;18.70;10.68;;;;;;;17.81;100.00;95395.38;5053022;28;20043;-76
2021/07/28 01:53:12;;;;;;;21.55;9.85;;;;;;;17.86;100.00;95398.94;5039792;28;20425;-77
2021/07/28 01:55:38;;;;;;;14.45;8.90;;;;;;;17.78;100.00;95400.53;5040051;28;20052;-76
2021/07/28 01:58:03;;;;;;;15.43;8.63;;;;;;;17.75;99.99;95396.63;5039638;28;20037;-76
2021/07/28 02:00:29;;;;;;;13.80;8.55;;;;;;;17.66;100.00;95393.22;5058512;28;20045;-77
2021/07/28 02:03:02;;;;;;;14.73;8.75;;;;;;;17.67;100.00;95389.47;5041291;28;20044;-76
2021/07/28 02:05:31;;;;;;;16.67;8.73;;;;;;;17.64;100.00;95390.88;5034752;28;20068;-76
2021/07/28 02:08:05;;;;;;;15.48;9.40;;;;;;;17.62;100.00;95381.63;5045109;28;20052;-76
2021/07/28 02:10:35;;;;;;;13.03;8.43;;;;;;;17.58;100.00;95380.72;5039342;28;20045;-76
2021/07/28 02:13:01;;;;;;;16.30;8.68;;;;;;;17.52;100.00;95381.97;5036117;28;20293;-76
2021/07/28 02:15:27;;;;;;;19.60;9.35;;;;;;;17.47;100.00;95381.06;5039346;28;20052;-76
2021/07/28 02:17:54;;;;;;;13.60;8.80;;;;;;;17.32;100.00;95376.22;5033067;28;20578;-77
2021/07/28 02:20:21;;;;;;;15.52;10.02;;;;;;;17.28;100.00;95372.63;5037052;28;20042;-76
2021/07/28 02:22:47;;;;;;;17.17;9.13;;;;;;;17.40;100.00;95380.75;5042723;28;20041;-76
2021/07/28 02:25:14;;;;;;;15.85;9.63;;;;;;;17.34;100.00;95376.69;5031998;28;20045;-77
2021/07/28 02:27:40;;;;;;;17.65;10.48;;;;;;;17.29;100.00;95363.56;5037632;28;20045;-77
2021/07/28 02:30:06;;;;;;;16.48;9.93;;;;;;;17.51;100.00;95369.78;5036855;28;20091;-77
2021/07/28 02:32:32;;;;;;;15.40;8.50;;;;;;;17.48;100.00;95357.88;5044265;28;20041;-76
2021/07/28 02:34:58;;;;;;;15.30;9.45;;;;;;;17.28;100.00;95357.47;5044065;28;20052;-77
2021/07/28 02:37:24;;;;;;;18.75;9.90;;;;;;;17.14;100.00;95352.31;5041424;28;20037;-76
2021/07/28 02:39:49;;;;;;;15.80;9.07;;;;;;;17.33;100.00;95353.84;5030572;28;20072;-77
2021/07/28 02:42:15;;;;;;;14.02;8.20;;;;;;;17.35;100.00;95362.28;5035646;28;20042;-76
2021/07/28 02:44:40;;;;;;;12.15;7.00;;;;;;;17.29;100.00;95358.25;5053879;28;20044;-76
2021/07/28 02:47:06;;;;;;;15.90;7.85;;;;;;;17.29;100.00;95374.19;5038357;28;20041;-77
2021/07/28 02:49:31;;;;;;;11.15;7.13;;;;;;;17.15;100.00;95374.34;5042521;28;20033;-76
2021/07/28 02:51:57;;;;;;;16.00;8.10;;;;;;;17.10;100.00;95359.34;5057077;28;20106;-76
2021/07/28 02:54:23;;;;;;;14.23;7.80;;;;;;;17.01;100.00;95363.91;5043022;28;20041;-77
2021/07/28 02:56:52;;;;;;;15.60;8.63;;;;;;;17.08;100.00;95369.53;5032356;28;20037;-76
2021/07/28 02:59:17;;;;;;;16.58;8.85;;;;;;;17.21;100.00;95372.31;5045913;28;20041;-76
2021/07/28 03:01:43;;;;;;;12.40;8.35;;;;;;;17.07;100.00;95383.91;5039317;28;20047;-76
2021/07/28 03:04:09;;;;;;;13.73;8.63;;;;;;;17.12;100.00;95381.09;5055930;28;20034;-76
2021/07/28 03:06:34;;;;;;;12.13;7.78;;;;;;;17.04;100.00;95383.75;5047748;28;20037;-76
2021/07/28 03:09:00;;;;;;;13.73;8.10;;;;;;;16.89;100.00;95382.34;5041092;28;20037;-76
2021/07/28 03:11:26;;;;;;;15.90;7.93;;;;;;;16.86;100.00;95393.56;5043055;28;20038;-76
2021/07/28 03:13:51;;;;;;;15.55;7.55;;;;;;;16.95;100.00;95397.03;5040060;28;20052;-76
2021/07/28 03:16:17;;;;;;;15.63;8.20;;;;;;;16.86;100.00;95382.94;5035592;28;20085;-76
2021/07/28 03:18:43;;;;;;;14.73;7.10;;;;;;;16.99;100.00;95382.03;5040994;28;20042;-77
2021/07/28 03:21:08;;;;;;;13.85;7.57;;;;;;;16.97;100.00;95373.59;5039937;28;20133;-76
2021/07/28 03:23:34;;;;;;;14.00;7.45;;;;;;;16.87;100.00;95368.56;5045293;28;20133;-76
2021/07/28 03:25:59;;;;;;;15.90;7.75;;;;;;;16.93;100.00;95383.28;5036584;28;20037;-76
2021/07/28 03:28:25;;;;;;;11.90;7.40;;;;;;;16.96;100.00;95377.34;5041035;28;20032;-76
2021/07/28 03:30:50;;;;;;;15.45;7.63;;;;;;;16.94;100.00;95385.63;5042110;28;20037;-76
2021/07/28 03:33:17;;;;;;;12.10;6.70;;;;;;;16.82;100.00;95388.09;5044626;28;20045;-76
2021/07/28 03:35:43;;;;;;;11.05;6.80;;;;;;;16.75;100.00;95388.56;5041355;28;20057;-76
2021/07/28 03:38:09;;;;;;;14.73;7.78;;;;;;;16.74;100.00;95397.63;5044636;28;20056;-76
2021/07/28 03:40:35;;;;;;;15.30;7.63;;;;;;;16.76;100.00;95395.44;5046608;28;20045;-77
2021/07/28 03:43:00;;;;;;;15.10;8.23;;;;;;;16.76;100.00;95400.75;5046624;28;20045;-76
2021/07/28 03:45:26;;;;;;;13.68;8.27;;;;;;;16.75;100.00;95393.88;5043985;28;20041;-76
2021/07/28 03:47:52;;;;;;;15.95;8.52;;;;;;;16.77;100.00;95396.22;5055175;28;20044;-76
2021/07/28 03:50:17;;;;;;;15.48;9.35;;;;;;;16.76;100.00;95387.47;5048371;28;20041;-76
2021/07/28 03:52:43;;;;;;;16.35;10.25;;;;;;;16.77;100.00;95375.75;5041751;28;20502;-76
2021/07/28 03:55:10;;;;;;;20.27;10.77;;;;;;;16.78;100.00;95366.69;5039626;28;20045;-76
2021/07/28 03:57:36;;;;;;;19.75;11.07;;;;;;;16.84;100.00;95369.19;5039407;28;20112;-76
2021/07/28 04:00:03;;;;;;;17.63;11.30;;;;;;;16.88;100.00;95370.16;5044482;28;20172;-77
2021/07/28 04:02:28;;;;;;;19.60;10.30;;;;;;;16.84;100.00;95364.66;5058487;28;20579;-76
2021/07/28 04:04:54;;;;;;;21.95;11.75;;;;;;;16.84;100.00;95359.34;5037543;28;20037;-76
2021/07/28 04:07:20;;;;;;;20.90;11.65;;;;;;;16.87;100.00;95352.63;5057855;28;20160;-76
2021/07/28 04:09:45;;;;;;;21.05;12.18;;;;;;;16.90;100.00;95346.72;5038616;28;20041;-77
2021/07/28 04:12:11;;;;;;;25.38;12.50;;;;;;;16.93;100.00;95340.75;5032238;28;20041;-77
2021/07/28 04:14:36;;;;;;;23.65;12.80;;;;;;;16.95;100.00;95333.25;5045236;28;20473;-76
2021/07/28 04:17:02;;;;;;;23.15;12.68;;;;;;;16.99;100.00;95331.53;5044487;28;20041;-77
2021/07/28 04:19:28;;;;;;;24.80;13.70;;;;;;;16.99;100.00;95339.50;5050771;28;20074;-76
2021/07/28 04:21:53;;;;;;;24.45;12.10;;;;;;;17.00;100.00;95340.31;5046060;28;20522;-76
2021/07/28 04:24:19;;;;;;;19.48;12.55;;;;;;;16.99;100.00;95350.13;5047985;28;20112;-76
2021/07/28 04:26:44;;;;;;;22.35;12.32;;;;;;;16.98;100.00;95348.56;5042369;28;20045;-77
2021/07/28 04:29:10;;;;;;;24.88;13.38;;;;;;;16.94;100.00;95352.97;5041345;28;20073;-76
2021/07/28 04:31:35;;;;;;;25.77;12.90;;;;;;;16.84;100.00;95348.72;5034964;28;20492;-77
2021/07/28 04:34:01;;;;;;;22.20;12.95;;;;;;;16.89;100.00;95355.78;5036549;28;20399;-77
2021/07/28 04:36:26;;;;;;;24.98;12.85;;;;;;;16.91;100.00;95354.38;5036525;28;20073;-76
2021/07/28 04:38:52;;;;;;;27.65;12.73;;;;;;;17.04;100.00;95357.97;5047114;28;20051;-76
2021/07/28 04:41:17;;;;;;;27.35;13.82;;;;;;;16.93;100.00;95346.09;5037963;28;20041;-76
2021/07/28 04:43:43;;;;;;;24.63;13.80;;;;;;;16.82;100.00;95342.91;5038765;28;20069;-77
2021/07/28 04:46:08;;;;;;;25.33;13.68;;;;;;;16.83;100.00;95346.38;5041962;28;20091;-77
2021/07/28 04:48:34;;;;;;;34.13;14.40;;;;;;;16.81;100.00;95349.34;5045265;28;20092;-77
2021/07/28 04:50:59;;;;;;;27.58;14.50;;;;;;;16.83;100.00;95351.69;5043645;28;20204;-76
2021/07/28 04:53:28;;;;;;;26.13;15.20;;;;;;;16.83;100.00;95362.31;5051186;28;20037;-77
2021/07/28 04:55:55;;;;;;;24.55;15.18;;;;;;;16.84;100.00;95364.66;5048199;28;20425;-76
2021/07/28 04:58:21;;;;;;;32.67;15.73;;;;;;;16.85;100.00;95365.44;5041638;28;20470;-77
2021/07/28 05:00:50;;;;;;;28.55;15.02;;;;;;;17.01;100.00;95369.22;5038450;28;20041;-76
2021/07/28 05:03:16;;;;;;;25.40;14.25;;;;;;;17.06;100.00;95370.94;5030989;28;20037;-77
2021/07/28 05:05:42;;;;;;;25.33;15.07;;;;;;;17.04;100.00;95373.91;5038840;28;20064;-77
2021/07/28 05:08:08;;;;;;;26.40;14.85;;;;;;;17.03;100.00;95367.03;5036233;28;20045;-77
2021/07/28 05:10:34;;;;;;;24.95;14.55;;;;;;;17.06;100.00;95366.38;5038248;28;20038;-76
2021/07/28 05:13:00;;;;;;;26.33;14.55;;;;;;;17.13;100.00;95372.00;5052983;28;20047;-77
2021/07/28 05:15:26;;;;;;;22.73;13.30;;;;;;;17.12;100.00;95367.81;5046359;28;20398;-77
2021/07/28 05:17:51;;;;;;;24.60;13.13;;;;;;;17.10;100.00;95370.00;5030287;28;20037;-77
2021/07/28 05:20:18;;;;;;;21.52;12.43;;;;;;;17.02;100.00;95365.44;5033908;28;20569;-77
2021/07/28 05:22:44;;;;;;;24.58;12.68;;;;;;;17.04;100.00;95368.59;5031758;28;20049;-77
2021/07/28 05:25:10;;;;;;;21.90;11.93;;;;;;;17.05;100.00;95364.84;5041090;28;20249;-77
2021/07/28 05:27:35;;;;;;;19.00;10.88;;;;;;;17.10;100.00;95362.00;5035962;28;20041;-79
2021/07/28 05:30:02;;;;;;;19.70;11.20;;;;;;;17.25;100.00;95351.97;5033467;28;20041;-78
2021/07/28 05:32:28;;;;;;;18.80;9.50;;;;;;;17.21;100.00;95359.03;5038827;28;20037;-78
2021/07/28 05:34:53;;;;;;;16.60;9.65;;;;;;;17.10;100.00;95356.69;5043526;28;20478;-79
2021/07/28 05:37:19;;;;;;;15.63;9.90;;;;;;;17.08;100.00;95369.53;5033685;28;20045;-79
2021/07/28 05:39:45;;;;;;;16.42;9.73;;;;;;;17.04;100.00;95357.16;5037726;28;20033;-78
2021/07/28 05:42:12;;;;;;;15.93;9.00;;;;;;;17.14;100.00;95357.63;5037922;28;20106;-79
2021/07/28 05:44:38;;;;;;;20.67;9.98;;;;;;;17.22;100.00;95363.25;5030074;28;20038;-79
2021/07/28 05:47:04;;;;;;;17.60;9.40;;;;;;;17.19;100.00;95350.59;5036850;28;20041;-79
2021/07/28 05:49:29;;;;;;;17.13;9.60;;;;;;;17.37;100.00;95359.31;5035287;28;20454;-79
2021/07/28 05:51:55;;;;;;;17.77;9.70;;;;;;;17.29;100.00;95353.69;5036956;28;20034;-79
2021/07/28 05:54:21;;;;;;;18.85;9.18;;;;;;;17.31;100.00;95361.34;5031971;28;20064;-78
2021/07/28 05:56:47;;;;;;;19.02;10.20;;;;;;;17.26;100.00;95358.88;5038952;28;20048;-78
2021/07/28 05:59:13;;;;;;;18.50;10.27;;;;;;;17.31;100.00;95356.03;5042626;28;20053;-79
2021/07/28 06:01:38;;;;;;;16.60;10.05;;;;;;;17.36;100.00;95358.53;5033143;28;20045;-79
2021/07/28 06:04:04;;;;;;;17.50;9.82;;;;;;;17.40;100.00;95364.03;5033241;28;20067;-79
2021/07/28 06:06:30;;;;;;;17.65;9.93;;;;;;;17.44;100.00;95363.06;5033589;28;20046;-79
2021/07/28 06:08:55;;;;;;;20.85;9.40;;;;;;;17.51;100.00;95359.13;5047508;28;20383;-79
2021/07/28 06:11:21;;;;;;;16.73;9.55;;;;;;;17.59;100.00;95355.66;5037775;28;20038;-79
2021/07/28 06:13:47;;;;;;;17.38;9.82;;;;;;;17.59;100.00;95366.31;5036318;28;20954;-79
2021/07/28 06:16:13;;;;;;;17.42;9.68;;;;;;;17.48;100.00;95361.34;5036998;28;20057;-79
2021/07/28 06:18:38;;;;;;;21.45;9.77;;;;;;;17.54;100.00;95363.81;5041090;28;20112;-79
2021/07/28 06:21:05;;;;;;;16.75;9.20;;;;;;;17.63;100.00;95351.28;5034162;28;20044;-79
2021/07/28 06:23:30;;;;;;;22.80;11.07;;;;;;;17.67;100.00;95352.22;5037493;28;20038;-79
2021/07/28 06:25:56;;;;;;;17.30;10.13;;;;;;;17.78;100.00;95353.41;5035592;28;20064;-79
2021/07/28 06:28:22;;;;;;;19.08;10.85;;;;;;;18.09;100.00;95347.03;5036130;28;20036;-79
2021/07/28 06:30:51;;;;;;;15.18;9.52;;;;;;;18.23;100.00;95340.69;5038632;28;20090;-78
2021/07/28 06:33:18;;;;;;;20.23;10.88;;;;;;;18.33;100.00;95345.66;5045443;28;20045;-79
2021/07/28 06:35:44;;;;;;;16.88;10.60;;;;;;;18.34;100.00;95347.97;5040618;28;20106;-79
2021/07/28 06:38:10;;;;;;;15.70;10.63;;;;;;;18.24;100.00;95347.59;5044780;28;20065;-79
2021/07/28 06:40:35;;;;;;;15.45;9.15;;;;;;;18.48;100.00;95337.09;5039172;28;20454;-79
2021/07/28 06:43:01;;;;;;;19.77;10.27;;;;;;;18.37;100.00;95349.22;5033611;28;20034;-79
2021/07/28 06:45:26;;;;;;;19.02;10.23;;;;;;;18.32;100.00;95346.78;5036712;28;20091;-80
2021/07/28 06:47:52;;;;;;;20.20;10.27;;;;;;;18.30;100.00;95351.63;5044696;28;20466;-79
2021/07/28 06:50:19;;;;;;;16.02;9.82;;;;;;;18.33;100.00;95345.66;5056314;28;20111;-80
2021/07/28 06:52:46;;;;;;;17.38;10.45;;;;;;;18.23;100.00;95346.03;5051221;28;20648;-79
2021/07/28 06:55:12;;;;;;;18.77;10.75;;;;;;;18.23;100.00;95346.03;5048863;28;20041;-80
2021/07/28 06:57:37;;;;;;;16.02;10.13;;;;;;;18.39;100.00;95346.25;5042699;28;20072;-80
2021/07/28 07:00:05;;;;;;;23.15;11.95;;;;;;;18.45;100.00;95337.75;5040783;28;20048;-79
2021/07/28 07:02:31;;;;;;;20.00;10.90;;;;;;;18.51;99.43;95341.78;5039533;28;20037;-80
2021/07/28 07:04:57;;;;;;;28.02;11.43;;;;;;;18.56;98.99;95348.00;5050601;28;20552;-80
2021/07/28 07:07:23;;;;;;;19.63;11.75;;;;;;;18.64;100.00;95349.84;5044005;28;20048;-79
2021/07/28 07:09:51;;;;;;;19.63;10.75;;;;;;;18.82;99.76;95345.94;5048417;28;20042;-78
2021/07/28 07:12:18;;;;;;;22.58;10.98;;;;;;;18.75;100.00;95345.69;5044780;28;20033;-79
2021/07/28 07:14:43;;;;;;;23.70;11.32;;;;;;;18.78;100.00;95350.38;5045318;28;20052;-80
2021/07/28 07:17:09;;;;;;;29.85;10.85;;;;;;;18.76;100.00;95347.25;5040498;28;20049;-80
2021/07/28 07:19:34;;;;;;;19.60;9.85;;;;;;;18.79;97.90;95351.94;5057709;28;20091;-80
2021/07/28 07:22:00;;;;;;;13.70;9.10;;;;;;;18.72;97.80;95351.69;5033125;28;20052;-79
2021/07/28 07:24:25;;;;;;;19.90;9.32;;;;;;;18.79;95.70;95345.81;5046349;28;20033;-79
2021/07/28 07:26:51;;;;;;;20.13;10.10;;;;;;;18.72;98.09;95349.00;5036258;28;20041;-79
2021/07/28 07:29:16;;;;;;;17.35;9.30;;;;;;;18.74;96.97;95356.69;5039392;28;20042;-79
2021/07/28 07:31:42;;;;;;;21.88;10.00;;;;;;;18.84;97.20;95354.38;5039140;28;20037;-79
2021/07/28 07:34:08;;;;;;;19.80;10.50;;;;;;;18.93;95.35;95345.56;5042196;28;20072;-83
2021/07/28 07:36:34;;;;;;;17.58;9.80;;;;;;;18.99;96.58;95342.41;5043551;28;20074;-81
2021/07/28 07:38:59;;;;;;;18.95;9.93;;;;;;;19.05;95.66;95337.63;5036491;28;20053;-82
2021/07/28 07:41:25;;;;;;;23.23;9.40;;;;;;;19.14;94.95;95342.91;5037342;28;20525;-82
2021/07/28 07:43:51;;;;;;;17.83;10.05;;;;;;;19.20;93.07;95350.34;5041643;28;20491;-82
2021/07/28 07:46:16;;;;;;;16.15;9.50;;;;;;;19.23;92.12;95340.13;5035377;28;20514;-79
2021/07/28 07:48:43;;;;;;;16.48;9.57;;;;;;;19.32;94.02;95346.16;5043135;28;20049;-79
2021/07/28 07:51:08;;;;;;;18.13;10.30;;;;;;;19.36;94.26;95349.72;5038810;28;20115;-81
2021/07/28 07:53:34;;;;;;;23.75;10.80;;;;;;;19.44;96.73;95350.75;5040168;28;20041;-82
2021/07/28 07:56:02;;;;;;;18.27;9.88;;;;;;;19.50;95.18;95352.88;5036970;28;20053;-80
2021/07/28 07:58:28;;;;;;;18.33;9.75;;;;;;;19.60;94.93;95345.56;5034658;28;20041;-79
2021/07/28 08:00:53;;;;;;;16.70;9.90;;;;;;;19.60;94.95;95350.91;5034233;28;20096;-81
2021/07/28 08:03:19;;;;;;;22.52;10.80;;;;;;;19.43;92.26;95349.97;5035599;28;20040;-80
2021/07/28 08:05:44;;;;;;;20.30;10.93;;;;;;;19.49;93.89;95350.53;5044527;28;20136;-80
2021/07/28 08:08:10;;;;;;;19.85;10.52;;;;;;;19.41;92.57;95346.88;5036115;28;20112;-79
2021/07/28 08:10:35;;;;;;;19.33;11.15;;;;;;;19.35;92.04;95346.28;5037080;28;20047;-79
2021/07/28 08:13:01;;;;;;;21.67;11.00;;;;;;;19.26;95.18;95342.16;5036271;28;20037;-80
2021/07/28 08:15:26;;;;;;;17.50;10.30;;;;;;;19.29;94.38;95344.91;5039331;28;20111;-79
2021/07/28 08:17:52;;;;;;;16.70;9.63;;;;;;;19.20;91.04;95354.91;5050767;28;20041;-78
2021/07/28 08:20:18;;;;;;;19.13;11.93;;;;;;;19.12;93.49;95353.88;5040310;28;20037;-79
2021/07/28 08:22:43;;;;;;;20.35;11.05;;;;;;;19.14;91.28;95351.66;5039092;28;20072;-79
2021/07/28 08:25:09;;;;;;;17.42;10.57;;;;;;;18.97;92.57;95357.16;5040211;28;20038;-79
2021/07/28 08:27:35;;;;;;;21.10;11.30;;;;;;;19.01;93.02;95366.84;5037597;28;20029;-79
2021/07/28 08:30:00;;;;;;;20.55;10.93;;;;;;;19.02;92.04;95370.28;5032925;28;20049;-79
2021/07/28 08:32:26;;;;;;;22.92;11.32;;;;;;;18.99;94.91;95362.94;5038250;28;20411;-79
2021/07/28 08:34:51;;;;;;;23.08;11.65;;;;;;;18.92;93.97;95365.34;5036885;28;20068;-79
2021/07/28 08:37:18;;;;;;;19.83;11.25;;;;;;;18.81;94.01;95360.38;5032679;28;20049;-77
2021/07/28 08:39:44;;;;;;;23.40;12.13;;;;;;;18.97;93.93;95367.81;5032399;28;20049;-79
2021/07/28 08:42:10;;;;;;;21.65;12.82;;;;;;;18.86;93.52;95378.88;5033701;28;20052;-81
2021/07/28 08:44:38;;;;;;;22.35;12.63;;;;;;;18.87;95.77;95375.09;5036698;28;20042;-78
2021/07/28 08:47:05;;;;;;;25.88;12.85;;;;;;;18.74;94.03;95381.44;5048189;28;20053;-78
2021/07/28 08:49:32;;;;;;;28.33;13.85;;;;;;;18.66;95.03;95396.41;5045151;28;20037;-79
2021/07/28 08:51:57;;;;;;;27.88;13.30;;;;;;;18.70;95.14;95401.84;5034135;28;20574;-79
2021/07/28 08:54:23;;;;;;;23.15;14.13;;;;;;;18.53;93.09;95403.53;5046851;28;20041;-78
2021/07/28 08:56:49;;;;;;;31.15;15.07;;;;;;;18.44;93.17;95405.44;5044737;28;20047;-77
2021/07/28 08:59:28;;;;;;;27.42;15.48;;;;;;;18.32;94.28;95397.38;5039209;28;20082;-81
2021/07/28 09:01:55;;;;;;;33.35;16.33;;;;;;;18.30;96.24;95399.56;5033080;28;20034;-79
2021/07/28 09:04:21;;;;;;;28.20;15.48;;;;;;;18.29;97.00;95398.03;5032572;28;20403;-80
2021/07/28 09:06:47;;;;;;;27.70;16.75;;;;;;;18.19;97.82;95401.81;5032548;28;20176;-79
2021/07/28 09:09:13;;;;;;;32.58;16.98;;;;;;;17.99;99.46;95400.66;5040264;28;20104;-79
2021/07/28 09:11:59;;;;;;;32.75;17.98;;;;;;;17.99;100.00;95405.97;5047662;28;20052;-79
2021/07/28 09:14:34;;;;;;;35.15;19.27;;;;;;;17.95;100.00;95410.38;5036716;28;20038;-78
2021/07/28 09:17:15;;;;;;;37.40;18.60;;;;;;;17.83;100.00;95413.69;5046342;28;20045;-79
2021/07/28 09:19:46;;;;;;;31.10;16.90;;;;;;;17.78;99.96;95422.59;5043025;28;20075;-82
2021/07/28 09:22:13;;;;;;;33.13;16.92;;;;;;;17.76;99.60;95424.81;5037553;28;20057;-80
2021/07/28 09:24:40;;;;;;;36.63;18.95;;;;;;;17.51;100.00;95425.63;5040787;28;20111;-78
2021/07/28 09:27:06;;;;;;;39.25;17.67;;;;;;;17.41;100.00;95430.19;5045724;28;20052;-77
2021/07/28 09:29:33;;;;;;;36.17;17.45;;;;;;;17.35;100.00;95434.09;5040443;28;20042;-78
2021/07/28 09:32:03;;;;;;;39.08;16.75;;;;;;;17.12;100.00;95436.94;5041257;28;20072;-80
2021/07/28 09:34:36;;;;;;;33.40;16.77;;;;;;;17.00;100.00;95426.13;5050944;28;20036;-79
2021/07/28 09:37:10;;;;;;;32.60;17.00;;;;;;;17.03;100.00;95433.47;5046949;28;20048;-78
2021/07/28 09:39:37;;;;;;;33.17;15.68;;;;;;;16.87;100.00;95433.13;5032918;28;20290;-78
2021/07/28 09:42:10;;;;;;;31.90;15.68;;;;;;;16.62;100.00;95443.41;5034344;28;20091;-79
2021/07/28 09:44:38;;;;;;;27.67;15.30;;;;;;;16.54;100.00;95441.50;5041637;28;20041;-79
2021/07/28 09:47:23;;;;;;;33.50;14.80;;;;;;;16.62;100.00;95447.91;5037620;28;20041;-79
2021/07/28 09:50:01;;;;;;;33.92;16.77;;;;;;;16.67;100.00;95450.44;5039273;28;20052;-78
2021/07/28 09:52:34;;;;;;;36.95;15.20;;;;;;;16.55;100.00;95463.53;5050586;28;20575;-80
2021/07/28 09:55:29;;;;;;;24.63;13.55;;;;;;;16.33;100.00;95483.78;5035784;28;20086;-77
2021/07/28 09:57:57;;;;;;;26.15;14.23;;;;;;;16.38;100.00;95496.16;5033209;28;20454;-77
2021/07/28 10:00:23;;;;;;;32.78;17.20;;;;;;;16.69;100.00;95512.03;5042133;28;20103;-78
2021/07/28 10:02:50;;;;;;;32.20;17.70;;;;;;;16.76;100.00;95528.31;5041028;28;20055;-77
2021/07/28 10:05:21;;;;;;;31.98;16.50;;;;;;;16.78;100.00;95526.13;5045311;28;20037;-76
2021/07/28 10:07:49;;;;;;;33.28;16.70;;;;;;;16.72;100.00;95526.56;5032206;28;20480;-78
2021/07/28 10:10:18;;;;;;;24.05;13.63;;;;;;;16.49;100.00;95517.91;5043544;28;20037;-82
2021/07/28 10:12:46;;;;;;;20.50;11.18;;;;;;;16.48;100.00;95508.34;5038900;28;20421;-81
2021/07/28 10:15:12;;;;;;;24.13;12.52;;;;;;;16.58;100.00;95516.06;5032541;28;20049;-79
2021/07/28 10:17:40;;;;;;;25.63;12.85;;;;;;;16.48;100.00;95518.97;5033430;28;20337;-79
2021/07/28 10:20:11;;;;;;;27.50;12.38;;;;;;;16.44;100.00;95522.25;5040899;28;20044;-82
2021/07/28 10:22:37;;;;;;;20.10;10.40;;;;;;;16.49;100.00;95523.22;5043226;28;20037;-81
2021/07/28 10:25:13;;;;;;;22.20;10.60;;;;;;;16.38;100.00;95526.13;5040166;28;20119;-80
2021/07/28 10:27:42;;;;;;;13.02;8.18;;;;;;;16.48;99.89;95526.94;5043154;28;20041;-78
2021/07/28 10:30:13;;;;;;;15.05;9.40;;;;;;;16.40;100.00;95521.28;5044195;28;20038;-81
2021/07/28 10:32:39;;;;;;;20.27;9.45;;;;;;;16.35;100.00;95518.78;5042371;28;20065;-80
2021/07/28 10:35:17;;;;;;;21.55;11.13;;;;;;;16.30;100.00;95521.56;5047522;28;20037;-79
2021/07/28 10:37:46;;;;;;;19.65;10.07;;;;;;;16.42;100.00;95508.50;5035869;28;20105;-78
2021/07/28 10:40:23;;;;;;;19.38;10.88;;;;;;;16.36;100.00;95515.03;5045864;28;20038;-78
2021/07/28 10:42:49;;;;;;;20.17;11.38;;;;;;;16.33;100.00;95510.31;5039080;28;20041;-83
2021/07/28 10:45:17;;;;;;;16.77;10.45;;;;;;;16.42;100.00;95519.13;5043411;28;20052;-81
2021/07/28 10:47:43;;;;;;;24.42;12.38;;;;;;;16.52;100.00;95523.41;5044528;28;20517;-81
2021/07/28 10:52:50;;;;;;;18.75;9.95;;;;;;;16.73;100.00;95517.50;5044185;28;20044;-81
2021/07/28 10:55:27;;;;;;;17.02;10.25;;;;;;;16.74;100.00;95514.56;5042258;28;20116;-84
2021/07/28 10:57:56;;;;;;;20.77;10.82;;;;;;;16.84;100.00;95515.34;5041634;28;20403;-84
2021/07/28 11:00:39;;;;;;;19.60;11.55;;;;;;;16.82;100.00;95509.56;5040723;28;20049;-80
2021/07/28 11:03:08;;;;;;;20.07;11.80;;;;;;;16.92;100.00;95509.31;5031426;28;20033;-80
2021/07/28 11:06:13;;;;;;;24.15;13.07;;;;;;;17.03;100.00;95515.91;5033353;28;20038;-78
2021/07/28 11:08:40;;;;;;;26.08;12.80;;;;;;;17.11;100.00;95507.16;5045793;28;20037;-78
2021/07/28 11:11:07;;;;;;;26.25;13.10;;;;;;;17.17;100.00;95512.31;5041453;28;20095;-78
2021/07/28 11:13:35;;;;;;;22.48;13.00;;;;;;;17.31;100.00;95504.97;5042056;28;20041;-78
2021/07/28 11:16:04;;;;;;;18.38;10.95;;;;;;;17.30;100.00;95498.09;5036897;28;20056;-78
2021/07/28 11:18:35;;;;;;;19.40;10.52;;;;;;;17.37;100.00;95503.75;5044616;28;20597;-80
2021/07/28 11:21:08;;;;;;;21.77;11.50;;;;;;;17.40;100.00;95492.47;5037662;28;20514;-80